Laa Dee Dah — WDJ6234 — position and weather

sailwx.info

Track history (hours):
 
Tides and Currents Weather Stations Pressure Air Temp Water Temp Dewpoint Dewpoint Depression Visibility Wind Speed Wind Dir Waves Ship Positions

Laa Dee Dah

Owner: Church 518, Gary R, Springfield, VA. More information available from US FCC via Universal Licensing System and Coast Guard Vessel Documentation Center.

Last reported at 2018-Apr-18 22:32 UTC. Time now 2018-Apr-19 11:45 UTC.
Position N 32°08' W 080°49'.

Length 21 m.

Type: Pleasure craft. MMSI: 367795740.

Date/timePositionNaut miles runAvg speedWind from/ knotsBaromVisibWave heightAir tempDewpointWater temp
2018-Apr-18 22:32N 32°08' W 080°49'0 5.2
2018-Apr-18 22:29N 32°08' W 080°49'5 9.8
2018-Apr-18 22:00N 32°04' W 080°50'7 8.4
2018-Apr-18 21:12N 31°57' W 080°48'2 9.7
2018-Apr-18 20:59N 31°55' W 080°49'4 9.0
2018-Apr-18 20:30N 31°51' W 080°51'  
2018-Apr-10 14:13N 27°01' W 080°05'2 7.6
2018-Apr-10 14:00N 26°59' W 080°04'4 8.0
2018-Apr-10 13:29N 26°55' W 080°02'23 1.1
2018-Apr-09 17:10N 26°33' W 080°01'210.2
2018-Apr-09 17:00N 26°31' W 080°01'610.6
2018-Apr-09 16:29N 26°25' W 080°01'710.4
2018-Apr-09 15:48N 26°18' W 080°01'310.1
2018-Apr-09 15:28N 26°15' W 080°02'5 9.9
2018-Apr-09 14:59N 26°11' W 080°04'5 9.1
2018-Apr-09 14:28N 26°06' W 080°05'1 2.5
2018-Apr-09 13:57N 26°07' W 080°07'0 0.0
2018-Apr-09 13:21N 26°07' W 080°07'0 0.0
2018-Apr-09 12:59N 26°07' W 080°07'1 1.5
2018-Apr-09 12:28N 26°06' W 080°07'  
Track history (hours):
 
Tides and Currents Weather Stations Pressure Air Temp Water Temp Dewpoint Dewpoint Depression Visibility Wind Speed Wind Dir Waves Ship Positions

Laa Dee Dah

Owner: Church 518, Gary R, Springfield, VA. More information available from US FCC via Universal Licensing System and Coast Guard Vessel Documentation Center.

Last reported at 2018-Apr-18 22:32 UTC. Time now 2018-Apr-19 11:45 UTC.
Position N 32°08' W 080°49'.

Length 21 m.

Type: Pleasure craft. MMSI: 367795740.

Date/timePositionNaut miles runAvg speedWind from/ knotsBaromVisibWave heightAir tempDewpointWater temp
2018-Apr-18 22:32N 32°08' W 080°49'0 5.2
2018-Apr-18 22:29N 32°08' W 080°49'5 9.8
2018-Apr-18 22:00N 32°04' W 080°50'7 8.4
2018-Apr-18 21:12N 31°57' W 080°48'2 9.7
2018-Apr-18 20:59N 31°55' W 080°49'4 9.0
2018-Apr-18 20:30N 31°51' W 080°51'  
2018-Apr-10 14:13N 27°01' W 080°05'2 7.6
2018-Apr-10 14:00N 26°59' W 080°04'4 8.0
2018-Apr-10 13:29N 26°55' W 080°02'23 1.1
2018-Apr-09 17:10N 26°33' W 080°01'210.2
2018-Apr-09 17:00N 26°31' W 080°01'610.6
2018-Apr-09 16:29N 26°25' W 080°01'710.4
2018-Apr-09 15:48N 26°18' W 080°01'310.1
2018-Apr-09 15:28N 26°15' W 080°02'5 9.9
2018-Apr-09 14:59N 26°11' W 080°04'5 9.1
2018-Apr-09 14:28N 26°06' W 080°05'1 2.5
2018-Apr-09 13:57N 26°07' W 080°07'0 0.0
2018-Apr-09 13:21N 26°07' W 080°07'0 0.0
2018-Apr-09 12:59N 26°07' W 080°07'1 1.5
2018-Apr-09 12:28N 26°06' W 080°07'  

Dump ship's entire track history